createdAt,value
2023-04-27T00:01:50.009Z,48.40
2023-04-27T00:04:16.883Z,48.30
2023-04-27T00:06:43.771Z,48.30
2023-04-27T00:09:12.233Z,48.30
2023-04-27T00:11:39.145Z,48.30
2023-04-27T00:14:05.852Z,48.30
2023-04-27T00:16:32.651Z,48.30
2023-04-27T00:18:59.477Z,48.30
2023-04-27T00:21:27.032Z,48.30
2023-04-27T00:23:54.328Z,48.30
2023-04-27T00:26:22.530Z,48.40
2023-04-27T00:28:49.401Z,48.30
2023-04-27T00:31:16.280Z,48.30
2023-04-27T00:33:42.981Z,48.30
2023-04-27T00:36:09.694Z,48.30
2023-04-27T00:38:37.072Z,48.70
2023-04-27T00:41:04.064Z,48.30
2023-04-27T00:43:30.906Z,48.20
2023-04-27T00:45:57.593Z,48.30
2023-04-27T00:48:24.502Z,48.30
2023-04-27T00:50:51.256Z,48.30
2023-04-27T00:53:18.150Z,48.30
2023-04-27T00:55:44.816Z,48.30
2023-04-27T00:58:11.934Z,48.20
2023-04-27T01:00:39.183Z,48.30
2023-04-27T01:03:06.256Z,48.40
2023-04-27T01:05:33.071Z,48.20
2023-04-27T01:07:59.753Z,48.30
2023-04-27T01:10:27.046Z,48.80
2023-04-27T01:12:53.843Z,48.20
2023-04-27T01:15:20.517Z,48.20
2023-04-27T01:17:47.544Z,48.10
2023-04-27T01:20:15.057Z,48.20
2023-04-27T01:22:41.958Z,48.20
2023-04-27T01:25:08.797Z,48.20
2023-04-27T01:27:35.659Z,48.20
2023-04-27T01:30:02.432Z,48.10
2023-04-27T01:32:29.240Z,48.20
2023-04-27T01:34:55.974Z,48.20
2023-04-27T01:37:22.673Z,48.20
2023-04-27T01:39:49.408Z,48.20
2023-04-27T01:42:17.133Z,48.20
2023-04-27T01:44:43.804Z,48.20
2023-04-27T01:47:10.498Z,48.20
2023-04-27T01:49:37.208Z,48.80
2023-04-27T01:52:03.994Z,48.80
2023-04-27T01:54:30.785Z,48.20
2023-04-27T01:56:58.729Z,48.20
2023-04-27T01:59:25.425Z,48.20
2023-04-27T02:01:52.139Z,48.20
2023-04-27T02:04:19.040Z,48.10
2023-04-27T02:06:45.826Z,48.10
2023-04-27T02:09:13.190Z,48.20
2023-04-27T02:11:40.016Z,48.10
2023-04-27T02:14:06.747Z,48.20
2023-04-27T02:16:33.548Z,48.80
2023-04-27T02:19:00.496Z,48.10
2023-04-27T02:21:28.507Z,48.10
2023-04-27T02:23:55.199Z,48.20
2023-04-27T02:26:22.392Z,48.20
2023-04-27T02:28:50.230Z,48.20
2023-04-27T02:31:17.332Z,48.80
2023-04-27T02:33:44.035Z,48.20
2023-04-27T02:36:10.718Z,48.20
2023-04-27T02:38:37.400Z,48.20
2023-04-27T02:41:04.178Z,48.10
2023-04-27T02:43:30.916Z,48.10
2023-04-27T02:45:57.747Z,48.20
2023-04-27T02:48:24.466Z,48.20
2023-04-27T02:50:51.145Z,48.20
2023-04-27T02:53:17.840Z,48.20
2023-04-27T02:55:48.436Z,48.00
2023-04-27T02:58:15.527Z,47.90
2023-04-27T03:00:42.631Z,47.70
2023-04-27T03:03:12.402Z,48.20
2023-04-27T03:05:39.230Z,47.40
2023-04-27T03:08:05.946Z,47.20
2023-04-27T03:10:32.755Z,47.10
2023-04-27T03:12:59.830Z,47.20
2023-04-27T03:15:26.583Z,47.20
2023-04-27T03:17:53.448Z,47.30
2023-04-27T03:20:21.407Z,47.40
2023-04-27T03:22:48.086Z,47.40
2023-04-27T03:25:14.902Z,47.40
2023-04-27T03:27:43.378Z,47.30
2023-04-27T03:30:10.897Z,48.00
2023-04-27T03:32:37.683Z,47.50
2023-04-27T03:35:04.734Z,47.40
2023-04-27T03:37:31.752Z,47.60
2023-04-27T03:39:58.469Z,47.60
2023-04-27T03:42:25.263Z,47.40
2023-04-27T03:44:51.944Z,47.70
2023-04-27T03:47:18.592Z,47.60
2023-04-27T03:49:45.281Z,47.70
2023-04-27T03:52:11.922Z,47.70
2023-04-27T03:54:38.680Z,47.70
2023-04-27T03:57:05.348Z,47.70
2023-04-27T03:59:32.065Z,47.90
2023-04-27T04:02:00.935Z,48.00
2023-04-27T04:04:28.334Z,48.00
2023-04-27T04:06:55.104Z,48.00
2023-04-27T04:09:23.864Z,48.00
2023-04-27T04:11:51.799Z,48.00
2023-04-27T04:14:18.497Z,48.00
2023-04-27T04:16:45.208Z,48.00
2023-04-27T04:19:12.158Z,48.00
2023-04-27T04:21:39.027Z,48.00
2023-04-27T04:24:06.186Z,48.00
2023-04-27T04:26:33.602Z,48.00
2023-04-27T04:29:01.183Z,48.10
2023-04-27T04:31:27.936Z,48.00
2023-04-27T04:33:54.618Z,48.00
2023-04-27T04:36:21.356Z,48.10
2023-04-27T04:38:48.017Z,48.00
2023-04-27T04:41:14.694Z,48.10
2023-04-27T04:43:42.266Z,48.10
2023-04-27T04:46:08.975Z,48.10
2023-04-27T04:48:36.938Z,48.10
2023-04-27T04:51:05.061Z,48.10
2023-04-27T04:53:31.950Z,48.10
2023-04-27T04:56:07.683Z,48.10
2023-04-27T04:58:34.343Z,48.10
2023-04-27T05:01:01.899Z,48.20
2023-04-27T05:03:28.802Z,48.20
2023-04-27T05:05:55.571Z,48.20
2023-04-27T05:08:22.262Z,48.20
2023-04-27T05:10:50.366Z,48.40
2023-04-27T05:13:17.275Z,47.90
2023-04-27T05:15:44.044Z,48.50
2023-04-27T05:18:11.276Z,48.20
2023-04-27T05:20:38.290Z,47.80
2023-04-27T05:23:05.055Z,48.20
2023-04-27T05:25:32.248Z,48.40
2023-04-27T05:27:58.923Z,48.20
2023-04-27T05:30:27.046Z,48.30
2023-04-27T05:32:53.835Z,48.20
2023-04-27T05:35:20.834Z,48.20
2023-04-27T05:37:47.514Z,48.30
2023-04-27T05:40:18.928Z,48.20
2023-04-27T05:42:48.699Z,48.20
2023-04-27T05:45:15.553Z,48.20
2023-04-27T05:47:42.289Z,48.20
2023-04-27T05:50:09.305Z,48.20
2023-04-27T05:52:38.252Z,48.20
2023-04-27T05:55:05.473Z,48.20
2023-04-27T05:57:32.162Z,48.20
2023-04-27T05:59:58.899Z,48.20
2023-04-27T06:02:25.813Z,48.20
2023-04-27T06:04:55.125Z,48.20
2023-04-27T06:07:21.875Z,48.20
2023-04-27T06:09:49.398Z,48.20
2023-04-27T06:12:16.082Z,48.20
2023-04-27T06:14:43.204Z,48.20
2023-04-27T06:17:09.879Z,48.20
2023-04-27T06:19:37.980Z,48.20
2023-04-27T06:22:13.397Z,48.20
2023-04-27T06:24:40.127Z,48.20
2023-04-27T06:27:06.859Z,48.20
2023-04-27T06:29:33.520Z,48.20
2023-04-27T06:32:00.366Z,48.10
2023-04-27T06:34:27.191Z,48.10
2023-04-27T06:36:53.881Z,48.10
2023-04-27T06:39:20.884Z,48.20
2023-04-27T06:41:47.648Z,48.10
2023-04-27T06:44:14.347Z,48.20
2023-04-27T06:46:41.149Z,48.10
2023-04-27T06:49:07.868Z,48.20
2023-04-27T06:51:34.544Z,48.20
2023-04-27T06:54:02.625Z,48.20
2023-04-27T06:56:29.364Z,48.20
2023-04-27T06:58:56.262Z,48.20
2023-04-27T07:01:23.060Z,48.20
2023-04-27T07:03:49.867Z,48.20
2023-04-27T07:06:16.654Z,48.20
2023-04-27T07:08:43.452Z,48.20
2023-04-27T07:11:10.167Z,48.20
2023-04-27T07:13:36.852Z,48.10
2023-04-27T07:16:03.696Z,48.10
2023-04-27T07:18:30.460Z,48.10
2023-04-27T07:20:58.143Z,48.10
2023-04-27T07:23:24.866Z,48.10
2023-04-27T07:25:54.590Z,48.10
2023-04-27T07:28:21.453Z,48.10
2023-04-27T07:30:48.117Z,48.10
2023-04-27T07:33:14.781Z,48.10
2023-04-27T07:35:42.062Z,48.00
2023-04-27T07:38:08.920Z,48.10
2023-04-27T07:40:36.392Z,48.00
2023-04-27T07:43:04.171Z,48.00
2023-04-27T07:45:34.192Z,48.00
2023-04-27T07:48:02.110Z,48.60
2023-04-27T07:50:30.027Z,48.00
2023-04-27T07:52:57.103Z,48.00
2023-04-27T07:55:23.880Z,48.00
2023-04-27T07:57:51.336Z,48.10
2023-04-27T08:00:23.961Z,48.00
2023-04-27T08:02:51.819Z,48.10
2023-04-27T08:05:19.408Z,48.00
2023-04-27T08:08:22.017Z,48.10
2023-04-27T08:11:19.457Z,48.00
2023-04-27T08:13:46.149Z,48.00
2023-04-27T08:16:12.921Z,48.00
2023-04-27T08:18:47.480Z,48.00
2023-04-27T08:21:15.058Z,48.00
2023-04-27T08:23:43.389Z,48.00
2023-04-27T08:26:13.924Z,48.00
2023-04-27T08:28:41.744Z,47.90
2023-04-27T08:31:08.577Z,48.00
2023-04-27T08:33:35.406Z,47.90
2023-04-27T08:36:02.555Z,48.60
2023-04-27T08:38:29.301Z,48.00
2023-04-27T08:40:56.025Z,47.90
2023-04-27T08:43:22.921Z,48.00
2023-04-27T08:45:50.448Z,48.00
2023-04-27T08:48:17.458Z,48.00
2023-04-27T08:50:44.485Z,48.00
2023-04-27T08:53:21.472Z,48.00
2023-04-27T08:55:48.385Z,48.10
2023-04-27T08:58:15.065Z,48.00
2023-04-27T09:00:42.196Z,48.00
2023-04-27T09:03:27.368Z,48.00
2023-04-27T09:06:04.421Z,48.00
2023-04-27T09:08:47.985Z,48.00
2023-04-27T09:11:15.223Z,48.00
2023-04-27T09:13:42.397Z,48.00
2023-04-27T09:16:09.319Z,48.00
2023-04-27T09:18:36.789Z,48.00
2023-04-27T09:21:04.230Z,47.80
2023-04-27T09:23:31.393Z,47.60
2023-04-27T09:25:58.498Z,47.30
2023-04-27T09:28:25.571Z,47.20
2023-04-27T09:30:53.726Z,46.90
2023-04-27T09:33:38.576Z,46.80
2023-04-27T09:36:05.850Z,46.80
2023-04-27T09:38:32.870Z,46.80
2023-04-27T09:40:59.953Z,46.90
2023-04-27T09:43:28.725Z,47.10
2023-04-27T09:45:55.731Z,47.10
2023-04-27T09:48:22.769Z,47.30
2023-04-27T09:50:49.847Z,47.40
2023-04-27T09:53:20.289Z,47.30
2023-04-27T09:55:54.314Z,47.30
2023-04-27T09:58:30.842Z,47.40
2023-04-27T10:01:01.070Z,47.40
2023-04-27T10:03:33.069Z,47.40
2023-04-27T10:06:02.934Z,47.40
2023-04-27T10:08:29.595Z,47.50
2023-04-27T10:10:56.284Z,47.50
2023-04-27T10:13:23.610Z,47.60
2023-04-27T10:15:50.655Z,47.60
2023-04-27T10:18:27.691Z,47.60
2023-04-27T10:20:54.346Z,47.60
2023-04-27T10:23:27.563Z,47.50
2023-04-27T10:25:54.333Z,47.60
2023-04-27T10:28:21.491Z,47.60
2023-04-27T10:30:49.366Z,47.70
2023-04-27T10:33:16.812Z,47.60
2023-04-27T10:35:44.489Z,47.60
2023-04-27T10:38:18.125Z,47.50
2023-04-27T10:40:46.664Z,47.60
2023-04-27T10:43:13.415Z,47.60
2023-04-27T10:45:40.621Z,47.60
2023-04-27T10:48:07.553Z,47.70
2023-04-27T10:50:34.604Z,47.60
2023-04-27T10:53:05.008Z,47.70
2023-04-27T10:55:31.802Z,47.60
2023-04-27T10:57:59.215Z,47.70
2023-04-27T11:00:29.639Z,47.70
2023-04-27T11:02:57.082Z,47.70
2023-04-27T11:05:25.653Z,47.70
2023-04-27T11:07:52.592Z,47.70
2023-04-27T11:10:19.512Z,47.70
2023-04-27T11:12:46.313Z,47.70
2023-04-27T11:15:14.854Z,47.70
2023-04-27T11:17:41.832Z,47.70
2023-04-27T11:20:09.039Z,47.70
2023-04-27T11:22:43.850Z,47.70
2023-04-27T11:25:10.550Z,47.70
2023-04-27T11:27:38.294Z,47.70
2023-04-27T11:30:05.783Z,47.70
2023-04-27T11:32:32.600Z,47.70
2023-04-27T11:34:59.808Z,47.60
2023-04-27T11:37:27.985Z,47.40
2023-04-27T11:39:54.884Z,47.20
2023-04-27T11:42:27.023Z,46.80
2023-04-27T11:44:54.509Z,46.70
2023-04-27T11:47:25.263Z,46.70
2023-04-27T11:49:52.743Z,46.70
2023-04-27T11:52:19.713Z,46.80
2023-04-27T11:54:50.321Z,46.70
2023-04-27T11:57:17.162Z,46.80
2023-04-27T11:59:44.703Z,46.90
2023-04-27T12:02:12.110Z,47.10
2023-04-27T12:04:39.093Z,47.20
2023-04-27T12:07:05.905Z,47.20
2023-04-27T12:09:32.597Z,47.90
2023-04-27T12:11:59.714Z,47.40
2023-04-27T12:14:27.405Z,47.30
2023-04-27T12:16:54.240Z,47.80
2023-04-27T12:19:21.371Z,47.30
2023-04-27T12:21:48.585Z,47.30
2023-04-27T12:24:16.328Z,47.30
2023-04-27T12:26:43.361Z,47.30
2023-04-27T12:29:10.074Z,47.40
2023-04-27T12:31:37.048Z,47.40
2023-04-27T12:34:03.927Z,47.40
2023-04-27T12:36:30.663Z,47.50
2023-04-27T12:39:01.742Z,47.50
2023-04-27T12:41:28.511Z,47.50
2023-04-27T12:43:55.242Z,47.40
2023-04-27T12:46:26.228Z,47.40
2023-04-27T12:48:53.190Z,47.50
2023-04-27T12:51:19.913Z,47.60
2023-04-27T12:53:46.705Z,47.50
2023-04-27T12:56:13.391Z,47.50
2023-04-27T12:58:46.350Z,47.50
2023-04-27T13:01:16.041Z,47.60
2023-04-27T13:03:43.169Z,47.60
2023-04-27T13:06:10.117Z,47.60
2023-04-27T13:08:38.365Z,47.50
2023-04-27T13:11:05.150Z,47.60
2023-04-27T13:13:32.005Z,47.60
2023-04-27T13:15:58.752Z,47.60
2023-04-27T13:18:25.553Z,47.60
2023-04-27T13:20:52.278Z,47.60
2023-04-27T13:23:18.980Z,47.60
2023-04-27T13:25:45.722Z,47.60
2023-04-27T13:28:12.536Z,47.60
2023-04-27T13:30:39.231Z,47.60
2023-04-27T13:33:21.176Z,47.60
2023-04-27T13:35:49.122Z,47.40
2023-04-27T13:38:15.784Z,47.20
2023-04-27T13:40:45.476Z,47.00
2023-04-27T13:43:12.204Z,46.90
2023-04-27T13:45:39.799Z,46.90
2023-04-27T13:48:06.632Z,46.80
2023-04-27T13:50:33.401Z,46.80
2023-04-27T13:53:00.148Z,46.80
2023-04-27T13:55:26.880Z,46.90
2023-04-27T13:57:57.247Z,46.90
2023-04-27T14:00:24.065Z,47.10
2023-04-27T14:02:51.177Z,47.10
2023-04-27T14:05:18.011Z,47.30
2023-04-27T14:07:44.731Z,47.30
2023-04-27T14:10:11.498Z,47.30
2023-04-27T14:12:38.208Z,47.40
2023-04-27T14:15:05.155Z,47.40
2023-04-27T14:17:32.364Z,47.40
2023-04-27T14:19:59.093Z,47.40
2023-04-27T14:22:26.124Z,47.40
2023-04-27T14:24:53.856Z,47.40
2023-04-27T14:27:22.010Z,47.40
2023-04-27T14:29:48.956Z,47.40
2023-04-27T14:32:20.649Z,47.40
2023-04-27T14:34:47.510Z,47.40
2023-04-27T14:37:14.278Z,47.50
2023-04-27T14:39:42.820Z,47.50
2023-04-27T14:42:11.225Z,47.60
2023-04-27T14:44:37.942Z,47.40
2023-04-27T14:47:05.753Z,47.40
2023-04-27T14:49:33.020Z,47.30
2023-04-27T14:52:03.536Z,47.30
2023-04-27T14:54:30.296Z,47.30
2023-04-27T14:56:58.611Z,44.80
2023-04-27T14:59:25.606Z,42.70
2023-04-27T15:01:52.492Z,40.70
2023-04-27T15:04:19.907Z,39.70
2023-04-27T15:06:47.107Z,39.40
2023-04-27T15:09:14.180Z,39.10
2023-04-27T15:11:41.463Z,38.90
2023-04-27T15:14:08.759Z,38.10
2023-04-27T15:16:35.981Z,37.70
2023-04-27T15:19:03.522Z,36.70
2023-04-27T15:21:31.286Z,36.90
2023-04-27T15:23:58.035Z,37.00
2023-04-27T15:26:26.379Z,38.50
2023-04-27T15:28:53.832Z,37.60
2023-04-27T15:31:21.345Z,37.00
2023-04-27T15:33:48.121Z,36.50
2023-04-27T15:36:15.437Z,35.80
2023-04-27T15:38:42.200Z,35.20
2023-04-27T15:41:08.867Z,36.00
2023-04-27T15:43:35.580Z,38.30
2023-04-27T15:46:05.969Z,39.20
2023-04-27T15:48:32.769Z,40.00
2023-04-27T15:51:10.163Z,40.30
2023-04-27T15:53:38.029Z,40.40
2023-04-27T15:56:05.014Z,40.40
2023-04-27T15:58:31.924Z,40.70
2023-04-27T16:01:00.142Z,40.50
2023-04-27T16:03:26.991Z,40.50
2023-04-27T16:05:53.844Z,40.70
2023-04-27T16:08:20.570Z,40.90
2023-04-27T16:10:47.214Z,41.10
2023-04-27T16:13:14.632Z,41.00
2023-04-27T16:15:41.509Z,41.10
2023-04-27T16:18:08.400Z,41.10
2023-04-27T16:20:36.559Z,41.20
2023-04-27T16:23:06.656Z,41.40
2023-04-27T16:25:33.357Z,41.40
2023-04-27T16:28:00.516Z,41.70
2023-04-27T16:30:27.237Z,41.80
2023-04-27T16:32:54.242Z,42.20
2023-04-27T16:35:21.043Z,42.20
2023-04-27T16:37:49.720Z,42.20
2023-04-27T16:40:16.698Z,42.60
2023-04-27T16:42:43.522Z,42.60
2023-04-27T16:45:11.032Z,42.70
2023-04-27T16:47:38.186Z,42.90
2023-04-27T16:50:05.217Z,43.10
2023-04-27T16:52:32.034Z,43.00
2023-04-27T16:54:58.747Z,43.30
2023-04-27T16:57:25.967Z,43.10
2023-04-27T16:59:52.707Z,43.50
2023-04-27T17:02:25.077Z,44.20
2023-04-27T17:04:52.929Z,43.70
2023-04-27T17:07:19.804Z,43.60
2023-04-27T17:09:46.574Z,43.80
2023-04-27T17:12:14.992Z,43.90
2023-04-27T17:14:42.509Z,44.00
2023-04-27T17:17:10.015Z,44.00
2023-04-27T17:19:36.954Z,44.10
2023-04-27T17:22:03.999Z,44.20
2023-04-27T17:24:30.769Z,44.30
2023-04-27T17:26:57.528Z,44.30
2023-04-27T17:29:26.668Z,44.40
2023-04-27T17:31:53.466Z,44.40
2023-04-27T17:34:20.364Z,44.50
2023-04-27T17:36:47.196Z,44.50
2023-04-27T17:39:14.578Z,44.60
2023-04-27T17:41:41.851Z,44.60
2023-04-27T17:44:08.617Z,44.70
2023-04-27T17:46:37.115Z,44.80
2023-04-27T17:49:03.917Z,44.80
2023-04-27T17:51:32.617Z,44.90
2023-04-27T17:53:59.349Z,44.90
2023-04-27T17:56:26.030Z,44.70
2023-04-27T17:58:52.772Z,44.70
2023-04-27T18:01:19.488Z,44.60
2023-04-27T18:03:46.315Z,44.80
2023-04-27T18:06:13.132Z,44.30
2023-04-27T18:08:40.183Z,44.30
2023-04-27T18:11:06.989Z,44.30
2023-04-27T18:13:33.744Z,44.50
2023-04-27T18:16:00.743Z,44.50
2023-04-27T18:18:27.854Z,44.70
2023-04-27T18:20:57.653Z,45.50
2023-04-27T18:23:24.378Z,44.90
2023-04-27T18:25:51.179Z,45.00
2023-04-27T18:28:19.104Z,45.00
2023-04-27T18:30:45.862Z,45.10
2023-04-27T18:33:12.626Z,45.20
2023-04-27T18:35:39.355Z,45.30
2023-04-27T18:38:06.150Z,45.30
2023-04-27T18:40:33.129Z,45.40
2023-04-27T18:42:59.836Z,45.50
2023-04-27T18:45:26.918Z,45.60
2023-04-27T18:47:53.843Z,45.50
2023-04-27T18:50:20.752Z,45.50
2023-04-27T18:52:47.604Z,45.70
2023-04-27T18:55:16.346Z,45.70
2023-04-27T18:57:43.184Z,45.70
2023-04-27T19:00:11.765Z,45.80
2023-04-27T19:02:38.668Z,45.80
2023-04-27T19:05:12.071Z,45.80
2023-04-27T19:07:39.473Z,45.80
2023-04-27T19:10:07.002Z,45.80
2023-04-27T19:12:33.871Z,45.80
2023-04-27T19:15:00.704Z,45.90
2023-04-27T19:17:27.716Z,46.00
2023-04-27T19:19:57.431Z,46.00
2023-04-27T19:22:24.324Z,46.10
2023-04-27T19:24:51.051Z,46.10
2023-04-27T19:27:17.919Z,46.10
2023-04-27T19:29:54.660Z,46.20
2023-04-27T19:32:28.869Z,46.20
2023-04-27T19:34:56.342Z,46.90
2023-04-27T19:37:23.483Z,46.30
2023-04-27T19:39:50.311Z,46.40
2023-04-27T19:42:17.000Z,46.30
2023-04-27T19:44:43.744Z,46.40
2023-04-27T19:47:11.192Z,46.40
2023-04-27T19:49:38.004Z,46.40
2023-04-27T19:52:05.288Z,46.50
2023-04-27T19:54:32.047Z,46.40
2023-04-27T19:56:58.799Z,46.40
2023-04-27T19:59:26.159Z,46.40
2023-04-27T20:01:52.963Z,46.40
2023-04-27T20:04:20.747Z,46.40
2023-04-27T20:06:47.891Z,46.40
2023-04-27T20:09:14.644Z,46.40
2023-04-27T20:11:41.446Z,46.50
2023-04-27T20:14:08.177Z,46.40
2023-04-27T20:16:38.050Z,46.40
2023-04-27T20:19:06.223Z,46.40
2023-04-27T20:21:33.661Z,46.40
2023-04-27T20:24:01.552Z,46.40
2023-04-27T20:26:28.635Z,46.50
2023-04-27T20:28:55.432Z,46.50
2023-04-27T20:31:22.148Z,46.50
2023-04-27T20:33:48.858Z,46.50
2023-04-27T20:36:18.224Z,46.50
2023-04-27T20:38:45.451Z,46.40
2023-04-27T20:41:15.170Z,46.50
2023-04-27T20:43:41.889Z,46.50
2023-04-27T20:46:10.120Z,46.50
2023-04-27T20:48:40.070Z,46.60
2023-04-27T20:51:06.891Z,46.50
2023-04-27T20:53:33.629Z,46.60
2023-04-27T20:56:00.297Z,46.50
2023-04-27T20:58:27.119Z,46.50
2023-04-27T21:00:53.845Z,46.50
2023-04-27T21:03:21.015Z,46.40
2023-04-27T21:05:51.330Z,46.60
2023-04-27T21:08:24.048Z,46.50
2023-04-27T21:10:50.752Z,46.60
2023-04-27T21:13:17.461Z,46.50
2023-04-27T21:15:50.452Z,46.50
2023-04-27T21:18:29.042Z,46.60
2023-04-27T21:21:00.817Z,46.40
2023-04-27T21:23:34.401Z,46.50
2023-04-27T21:26:01.111Z,46.60
2023-04-27T21:28:27.777Z,46.60
2023-04-27T21:30:54.483Z,46.70
2023-04-27T21:33:21.406Z,46.70
2023-04-27T21:35:48.126Z,46.70
2023-04-27T21:38:14.798Z,46.60
2023-04-27T21:40:41.499Z,46.60
2023-04-27T21:43:08.169Z,46.60
2023-04-27T21:45:34.911Z,46.60
2023-04-27T21:48:01.604Z,46.80
2023-04-27T21:50:28.332Z,46.70
2023-04-27T21:52:55.072Z,46.70
2023-04-27T21:55:21.762Z,46.80
2023-04-27T21:57:48.472Z,46.80
2023-04-27T22:00:15.375Z,46.80
2023-04-27T22:02:45.123Z,46.80
2023-04-27T22:05:12.295Z,46.80
2023-04-27T22:07:39.012Z,46.80
2023-04-27T22:10:05.899Z,46.80
2023-04-27T22:12:32.562Z,46.80
2023-04-27T22:14:59.245Z,46.80
2023-04-27T22:17:26.134Z,46.80
2023-04-27T22:19:52.919Z,46.70
2023-04-27T22:22:19.634Z,46.50
2023-04-27T22:24:46.312Z,46.50
2023-04-27T22:27:12.997Z,46.30
2023-04-27T22:29:39.681Z,46.00
2023-04-27T22:32:06.750Z,45.80
2023-04-27T22:34:33.471Z,45.80
2023-04-27T22:37:00.257Z,45.90
2023-04-27T22:39:27.037Z,45.90
2023-04-27T22:41:59.944Z,46.00
2023-04-27T22:44:26.774Z,46.10
2023-04-27T22:46:53.561Z,46.10
2023-04-27T22:49:20.267Z,46.10
2023-04-27T22:51:47.349Z,46.10
2023-04-27T22:54:14.751Z,46.30
2023-04-27T22:56:41.826Z,46.30
2023-04-27T22:59:08.584Z,46.40
2023-04-27T23:01:35.470Z,46.50
2023-04-27T23:04:02.501Z,46.50
2023-04-27T23:06:30.432Z,46.50
2023-04-27T23:08:57.264Z,46.50
2023-04-27T23:11:23.954Z,46.50
2023-04-27T23:13:50.753Z,46.50
2023-04-27T23:16:17.584Z,46.50
2023-04-27T23:18:44.431Z,46.50
2023-04-27T23:21:11.652Z,46.50
2023-04-27T23:23:44.454Z,46.60
2023-04-27T23:26:14.422Z,46.50
2023-04-27T23:28:48.193Z,46.50
2023-04-27T23:31:14.924Z,46.70
2023-04-27T23:33:41.795Z,46.60
2023-04-27T23:36:08.494Z,46.60
2023-04-27T23:38:35.209Z,46.60
2023-04-27T23:41:07.941Z,46.70
2023-04-27T23:43:34.660Z,46.70
2023-04-27T23:46:01.430Z,47.30
2023-04-27T23:48:28.138Z,46.80
2023-04-27T23:51:01.459Z,46.70
2023-04-27T23:53:28.238Z,46.80
2023-04-27T23:55:55.319Z,46.80
2023-04-27T23:58:24.056Z,46.80
